Time;durP1;ratioP1;P1;durP2;ratioP2;P2;SDS_P1;SDS_P2;PMS_P1;PMS_P2;Temp;Humidity;BMP_temperature;BMP_pressure;BME280_temperature;BME280_humidity;BME280_pressure;Samples;Min_cycle;Max_cycle;Signal;HPM_P1;HPM_P2
2023/04/15 00:02:18;;;;;;;6.27;2.47;;;6.70;99.90;;;;;;5075255;28;20040;-38
2023/04/15 00:04:45;;;;;;;5.30;2.08;;;6.60;99.90;;;;;;5074908;28;20113;-38
2023/04/15 00:07:11;;;;;;;5.80;2.53;;;6.60;99.90;;;;;;5074554;28;20091;-38
2023/04/15 00:09:37;;;;;;;5.53;2.03;;;6.60;99.90;;;;;;5076015;28;20080;-38
2023/04/15 00:12:04;;;;;;;6.37;2.60;;;6.50;99.90;;;;;;5075105;28;20052;-38
2023/04/15 00:14:29;;;;;;;7.72;2.90;;;6.50;99.90;;;;;;5075891;28;20287;-38
2023/04/15 00:16:56;;;;;;;8.20;2.37;;;6.50;99.90;;;;;;5058339;28;20093;-38
2023/04/15 00:19:23;;;;;;;7.03;2.72;;;6.50;99.90;;;;;;5074693;28;20056;-38
2023/04/15 00:21:49;;;;;;;6.13;2.72;;;6.50;99.90;;;;;;5075278;28;20049;-38
2023/04/15 00:24:14;;;;;;;7.23;2.80;;;6.50;99.90;;;;;;5058276;28;20047;-38
2023/04/15 00:26:40;;;;;;;8.53;3.03;;;6.50;99.90;;;;;;5075079;28;20041;-38
2023/04/15 00:29:06;;;;;;;5.40;3.23;;;6.50;99.90;;;;;;5075568;28;20100;-38
2023/04/15 00:31:31;;;;;;;6.70;2.63;;;6.40;99.90;;;;;;5075745;28;20092;-38
2023/04/15 00:33:57;;;;;;;5.87;2.57;;;6.50;99.90;;;;;;5075517;28;20142;-38
2023/04/15 00:36:23;;;;;;;7.83;3.10;;;6.50;99.90;;;;;;5074558;28;20498;-38
2023/04/15 00:38:49;;;;;;;6.33;3.00;;;6.50;99.90;;;;;;5074539;28;20040;-38
2023/04/15 00:41:14;;;;;;;7.10;3.43;;;6.50;99.90;;;;;;5074553;28;20052;-39
2023/04/15 00:43:42;;;;;;;5.37;2.40;;;6.50;99.90;;;;;;5074779;28;20136;-39
2023/04/15 00:46:09;;;;;;;6.53;2.95;;;6.40;99.90;;;;;;5075320;28;20048;-38
2023/04/15 00:48:36;;;;;;;7.78;3.20;;;6.50;99.90;;;;;;5075216;28;20040;-38
2023/04/15 00:51:01;;;;;;;;;;;6.40;99.90;;;;;;5074672;28;20483;-38
2023/04/15 00:53:27;;;;;;;6.85;3.10;;;6.40;99.90;;;;;;5075288;28;19963;-38
2023/04/15 00:55:53;;;;;;;8.33;3.20;;;6.40;99.90;;;;;;5074150;28;20056;-38
2023/04/15 00:58:19;;;;;;;7.78;2.88;;;6.40;99.90;;;;;;5075153;28;20052;-38
2023/04/15 01:00:45;;;;;;;5.93;2.63;;;6.40;99.90;;;;;;5074418;28;20048;-38
2023/04/15 01:03:11;;;;;;;7.50;3.05;;;6.40;99.90;;;;;;5074036;28;20106;-38
2023/04/15 01:05:38;;;;;;;5.97;2.70;;;6.40;99.90;;;;;;5073895;28;20437;-38
2023/04/15 01:08:03;;;;;;;;;;;6.40;99.90;;;;;;5075228;28;20052;-38
2023/04/15 01:10:30;;;;;;;7.90;3.50;;;6.40;99.90;;;;;;5074895;28;20083;-38
2023/04/15 01:12:56;;;;;;;6.90;3.38;;;6.40;99.90;;;;;;5074723;28;20047;-38
2023/04/15 01:15:23;;;;;;;7.32;3.10;;;6.40;99.90;;;;;;5074754;28;20055;-38
2023/04/15 01:17:49;;;;;;;6.03;3.05;;;6.40;99.90;;;;;;5073778;28;20055;-38
2023/04/15 01:20:15;;;;;;;8.83;3.83;;;6.40;99.90;;;;;;5073388;28;20044;-38
2023/04/15 01:22:41;;;;;;;7.55;3.50;;;6.40;99.90;;;;;;5075069;28;20049;-38
2023/04/15 01:25:11;;;;;;;8.73;3.30;;;6.30;99.90;;;;;;5074602;28;20391;-38
2023/04/15 01:27:41;;;;;;;6.95;3.35;;;6.30;99.90;;;;;;5074324;28;20502;-38
2023/04/15 01:30:08;;;;;;;6.07;3.05;;;6.30;99.90;;;;;;5073158;28;20049;-38
2023/04/15 01:32:34;;;;;;;9.38;3.05;;;6.30;99.90;;;;;;5073889;28;20052;-38
2023/04/15 01:35:00;;;;;;;7.67;3.53;;;6.20;99.90;;;;;;5073058;28;20067;-38
2023/04/15 01:37:26;;;;;;;7.38;3.50;;;6.30;99.90;;;;;;5074334;28;20041;-38
2023/04/15 01:39:52;;;;;;;7.90;4.28;;;6.20;99.90;;;;;;5073389;28;20052;-38
2023/04/15 01:42:17;;;;;;;8.47;3.30;;;6.20;99.90;;;;;;5074358;28;20036;-38
2023/04/15 01:44:43;;;;;;;8.63;3.80;;;6.20;99.90;;;;;;5074364;28;20525;-38
2023/04/15 01:47:09;;;;;;;8.07;3.97;;;6.20;99.90;;;;;;5074036;28;20087;-38
2023/04/15 01:49:35;;;;;;;7.60;3.73;;;6.20;99.90;;;;;;5073056;28;20044;-38
2023/04/15 01:52:00;;;;;;;8.60;4.57;;;6.20;99.90;;;;;;5073223;28;20048;-38
2023/04/15 01:54:26;;;;;;;8.33;4.20;;;6.20;99.90;;;;;;5074122;28;20053;-38
2023/04/15 01:56:52;;;;;;;8.33;3.60;;;6.20;99.90;;;;;;5073995;28;20048;-38
2023/04/15 01:59:18;;;;;;;7.40;3.60;;;6.20;99.90;;;;;;5072911;28;20094;-38
2023/04/15 02:01:44;;;;;;;8.00;3.73;;;6.10;99.90;;;;;;5073921;28;20059;-38
2023/04/15 02:04:15;;;;;;;8.52;3.95;;;6.10;99.90;;;;;;5072752;28;20048;-38
2023/04/15 02:06:44;;;;;;;8.02;3.70;;;6.10;99.90;;;;;;5073472;28;20048;-38
2023/04/15 02:09:09;;;;;;;7.28;3.28;;;6.10;99.90;;;;;;5072673;28;20087;-38
2023/04/15 02:11:36;;;;;;;6.73;3.20;;;6.10;99.90;;;;;;5073869;28;20117;-38
2023/04/15 02:14:05;;;;;;;6.82;3.55;;;6.10;99.90;;;;;;5072773;28;20139;-38
2023/04/15 02:16:31;;;;;;;9.43;3.83;;;6.00;99.90;;;;;;5073727;28;20141;-38
2023/04/15 02:18:58;;;;;;;9.50;3.70;;;6.00;99.90;;;;;;5073724;28;20040;-38
2023/04/15 02:21:25;;;;;;;9.52;4.00;;;6.00;99.90;;;;;;5073716;28;20092;-38
2023/04/15 02:23:52;;;;;;;8.05;3.75;;;6.00;99.90;;;;;;5072731;28;20059;-38
2023/04/15 02:26:19;;;;;;;7.60;3.72;;;6.00;99.90;;;;;;5072510;28;20052;-38
2023/04/15 02:28:45;;;;;;;8.05;3.72;;;6.00;99.90;;;;;;5073278;28;20040;-38
2023/04/15 02:31:11;;;;;;;8.93;4.03;;;6.00;99.90;;;;;;5072475;28;20058;-38
2023/04/15 02:33:37;;;;;;;8.03;4.30;;;5.90;99.90;;;;;;5072553;28;20131;-38
2023/04/15 02:36:03;;;;;;;9.83;4.13;;;5.90;99.90;;;;;;5072654;28;20056;-38
2023/04/15 02:38:30;;;;;;;9.73;4.25;;;6.00;99.90;;;;;;5073567;28;20127;-38
2023/04/15 02:40:56;;;;;;;9.10;4.28;;;6.00;99.90;;;;;;5073566;28;20052;-38
2023/04/15 02:43:22;;;;;;;9.60;4.83;;;5.90;99.90;;;;;;5073294;28;20091;-38
2023/04/15 02:45:48;;;;;;;9.43;4.53;;;5.90;99.90;;;;;;5076663;28;20140;-38
2023/04/15 02:48:15;;;;;;;9.53;4.60;;;5.90;99.90;;;;;;5077536;28;20070;-38
2023/04/15 02:50:41;;;;;;;9.43;4.32;;;5.90;99.90;;;;;;5076187;28;20804;-38
2023/04/15 02:53:07;;;;;;;8.03;3.93;;;5.90;99.90;;;;;;5077391;28;20080;-38
2023/04/15 02:55:32;;;;;;;10.83;5.00;;;5.90;99.90;;;;;;5077329;28;20045;-38
2023/04/15 02:57:59;;;;;;;8.80;4.03;;;5.80;99.90;;;;;;5076519;28;20047;-38
2023/04/15 03:00:25;;;;;;;;;;;5.80;99.90;;;;;;5076384;28;20063;-38
2023/04/15 03:02:55;;;;;;;11.20;5.20;;;5.80;99.90;;;;;;5077915;28;19920;-38
2023/04/15 03:05:24;;;;;;;9.57;4.47;;;5.80;99.90;;;;;;5076171;28;20505;-38
2023/04/15 03:07:50;;;;;;;8.68;4.43;;;5.80;99.90;;;;;;5077314;28;20044;-38
2023/04/15 03:10:16;;;;;;;10.38;5.03;;;5.80;99.90;;;;;;5077004;28;20040;-38
2023/04/15 03:12:42;;;;;;;9.27;4.97;;;5.80;99.90;;;;;;5077104;28;20071;-38
2023/04/15 03:15:08;;;;;;;10.87;5.57;;;5.80;99.90;;;;;;5077069;28;20045;-38
2023/04/15 03:17:34;;;;;;;9.90;5.32;;;5.80;99.90;;;;;;5076085;28;20086;-38
2023/04/15 03:20:04;;;;;;;10.88;5.25;;;5.80;99.90;;;;;;5076955;28;20051;-38
2023/04/15 03:22:33;;;;;;;11.10;5.28;;;5.80;99.90;;;;;;5093012;28;20040;-38
2023/04/15 03:24:59;;;;;;;12.20;5.43;;;5.80;99.90;;;;;;5076851;28;20041;-38
2023/04/15 03:27:25;;;;;;;10.07;4.77;;;5.80;99.90;;;;;;5075677;28;20119;-38
2023/04/15 03:29:50;;;;;;;12.17;5.83;;;5.80;99.90;;;;;;5076370;28;20091;-38
2023/04/15 03:32:17;;;;;;;8.90;4.70;;;5.80;99.90;;;;;;5076698;28;20542;-39
2023/04/15 03:34:42;;;;;;;11.48;5.43;;;5.90;99.90;;;;;;5076814;28;20411;-38
2023/04/15 03:37:08;;;;;;;10.57;5.33;;;5.90;99.90;;;;;;5076775;28;20070;-38
2023/04/15 03:39:34;;;;;;;10.27;5.40;;;5.90;99.90;;;;;;5076488;28;20045;-38
2023/04/15 03:42:00;;;;;;;10.60;4.53;;;6.00;99.90;;;;;;5075371;28;20045;-38
2023/04/15 03:44:26;;;;;;;10.48;5.40;;;6.00;99.90;;;;;;5075733;28;20059;-38
2023/04/15 03:46:52;;;;;;;11.35;5.47;;;6.00;99.90;;;;;;5075550;28;20047;-38
2023/04/15 03:49:18;;;;;;;12.10;5.27;;;6.00;99.90;;;;;;5075588;28;20048;-38
2023/04/15 03:51:44;;;;;;;13.17;5.23;;;6.00;99.90;;;;;;5076211;28;20290;-38
2023/04/15 03:54:11;;;;;;;10.05;5.13;;;6.00;99.90;;;;;;5074853;28;20365;-38
2023/04/15 03:56:37;;;;;;;9.43;4.32;;;5.90;99.90;;;;;;5075232;28;20078;-38
2023/04/15 03:59:03;;;;;;;9.23;4.20;;;5.80;99.90;;;;;;5075339;28;20131;-38
2023/04/15 04:01:28;;;;;;;7.27;3.50;;;5.80;99.90;;;;;;5076484;28;20044;-38
2023/04/15 04:03:54;;;;;;;8.37;4.07;;;5.60;99.90;;;;;;5075981;28;20044;-38
2023/04/15 04:06:20;;;;;;;8.47;4.13;;;5.50;99.90;;;;;;5075993;28;20048;-38
2023/04/15 04:08:46;;;;;;;11.17;4.40;;;5.40;99.90;;;;;;5074848;28;20048;-38
2023/04/15 04:11:12;;;;;;;8.17;3.73;;;5.30;99.90;;;;;;5058292;28;20322;-38
2023/04/15 04:13:38;;;;;;;12.70;4.17;;;5.30;99.90;;;;;;5076008;28;20094;-38
2023/04/15 04:16:04;;;;;;;7.67;3.73;;;5.30;99.90;;;;;;5076030;28;20101;-38
2023/04/15 04:18:33;;;;;;;8.20;3.60;;;5.30;99.90;;;;;;5075872;28;20273;-38
2023/04/15 04:20:59;;;;;;;8.27;4.25;;;5.20;99.90;;;;;;5074852;28;20135;-38
2023/04/15 04:23:25;;;;;;;9.48;4.20;;;5.20;99.90;;;;;;5075809;28;20049;-38
2023/04/15 04:25:51;;;;;;;9.75;4.57;;;5.10;99.90;;;;;;5075717;28;20060;-38
2023/04/15 04:28:17;;;;;;;7.63;3.60;;;5.00;99.90;;;;;;5075670;28;20049;-38
2023/04/15 04:30:43;;;;;;;8.77;4.00;;;5.00;99.90;;;;;;5074376;28;20056;-38
2023/04/15 04:33:09;;;;;;;7.83;3.90;;;4.90;99.90;;;;;;5074708;28;20045;-38
2023/04/15 04:35:36;;;;;;;8.73;4.30;;;4.90;99.90;;;;;;5075568;28;20049;-38
2023/04/15 04:38:02;;;;;;;9.35;4.18;;;4.80;99.90;;;;;;5075558;28;20049;-38
2023/04/15 04:40:28;;;;;;;9.73;4.20;;;4.80;99.90;;;;;;5075482;28;20045;-38
2023/04/15 04:42:54;;;;;;;8.37;4.13;;;4.70;99.90;;;;;;5075691;28;20372;-38
2023/04/15 04:45:20;;;;;;;9.43;4.20;;;4.70;99.90;;;;;;5075769;28;20480;-38
2023/04/15 04:47:46;;;;;;;9.47;4.90;;;4.70;99.90;;;;;;5075396;28;20452;-38
2023/04/15 04:50:12;;;;;;;10.48;4.50;;;4.70;99.90;;;;;;5075270;28;20358;-38
2023/04/15 04:52:38;;;;;;;8.87;4.20;;;4.70;99.90;;;;;;5074257;28;20124;-38
2023/04/15 04:55:05;;;;;;;9.03;4.00;;;4.70;99.90;;;;;;5075027;28;20045;-38
2023/04/15 04:57:30;;;;;;;;;;;4.70;99.90;;;;;;5074769;28;20060;-38
2023/04/15 04:59:56;;;;;;;8.75;4.50;;;4.80;99.90;;;;;;5074180;28;19920;-38
2023/04/15 05:02:22;;;;;;;9.77;4.20;;;4.80;99.90;;;;;;5074927;28;20484;-38
2023/04/15 05:04:49;;;;;;;8.53;4.17;;;4.80;99.90;;;;;;5073901;28;20047;-39
2023/04/15 05:07:14;;;;;;;;;;;4.70;99.90;;;;;;5073815;28;20056;-38
2023/04/15 05:09:40;;;;;;;11.13;4.68;;;4.70;99.90;;;;;;5072816;28;19927;-38
2023/04/15 05:12:08;;;;;;;9.77;4.53;;;4.70;99.90;;;;;;5073974;28;20479;-38
2023/04/15 05:14:34;;;;;;;8.57;4.25;;;4.70;99.90;;;;;;5074756;28;20161;-38
2023/04/15 05:16:59;;;;;;;10.07;4.40;;;4.60;99.90;;;;;;5074704;28;20044;-38
2023/04/15 05:19:25;;;;;;;10.33;4.53;;;4.60;99.90;;;;;;5074879;28;20372;-38
2023/04/15 05:21:51;;;;;;;9.47;4.00;;;4.60;99.90;;;;;;5073773;28;20487;-38
2023/04/15 05:24:17;;;;;;;8.30;4.40;;;4.60;99.90;;;;;;5074376;28;20052;-38
2023/04/15 05:26:42;;;;;;;8.90;4.07;;;4.60;99.90;;;;;;5074027;28;20135;-38
2023/04/15 05:29:08;;;;;;;9.03;4.10;;;4.60;99.90;;;;;;5074455;28;20144;-38
2023/04/15 05:31:34;;;;;;;10.57;4.10;;;4.70;99.90;;;;;;5074727;28;20464;-38
2023/04/15 05:34:00;;;;;;;8.30;3.87;;;4.80;99.90;;;;;;5073412;28;20395;-38
2023/04/15 05:36:26;;;;;;;8.32;4.32;;;4.80;99.90;;;;;;5074192;28;20387;-38
2023/04/15 05:38:52;;;;;;;7.65;3.90;;;4.80;99.90;;;;;;5074104;28;20051;-38
2023/04/15 05:41:18;;;;;;;13.70;4.43;;;4.90;99.90;;;;;;5074325;28;20049;-38
2023/04/15 05:43:43;;;;;;;8.73;4.17;;;4.90;99.90;;;;;;5074222;28;20049;-38
2023/04/15 05:46:09;;;;;;;8.10;3.93;;;5.00;99.90;;;;;;5073262;28;20150;-38
2023/04/15 05:48:34;;;;;;;9.13;4.63;;;5.10;99.90;;;;;;5074106;28;20090;-38
2023/04/15 05:51:00;;;;;;;9.97;4.70;;;5.10;99.90;;;;;;5074194;28;20117;-38
2023/04/15 05:53:26;;;;;;;8.60;3.63;;;5.20;99.90;;;;;;5074089;28;20084;-38
2023/04/15 05:55:51;;;;;;;8.93;3.90;;;5.20;99.90;;;;;;5074097;28;20044;-38
2023/04/15 05:58:17;;;;;;;9.37;3.97;;;5.30;99.90;;;;;;5073090;28;20052;-38
2023/04/15 06:00:43;;;;;;;8.77;3.93;;;5.40;99.90;;;;;;5056469;28;20105;-38
2023/04/15 06:03:10;;;;;;;8.20;3.73;;;5.50;99.90;;;;;;5073861;28;20495;-38
2023/04/15 06:05:36;;;;;;;9.05;4.35;;;5.60;99.90;;;;;;5073763;28;20083;-38
2023/04/15 06:08:02;;;;;;;7.60;3.77;;;5.70;99.90;;;;;;5073601;28;20087;-38
2023/04/15 06:10:27;;;;;;;7.47;3.13;;;5.80;99.90;;;;;;5073921;28;20080;-38
2023/04/15 06:12:53;;;;;;;9.17;3.80;;;5.90;99.90;;;;;;5072652;28;20052;-38
2023/04/15 06:15:19;;;;;;;8.40;3.93;;;6.00;99.90;;;;;;5074143;28;20041;-38
2023/04/15 06:17:45;;;;;;;8.93;4.13;;;6.00;99.90;;;;;;5072668;28;20552;-38
2023/04/15 06:20:11;;;;;;;10.10;4.20;;;6.10;99.90;;;;;;5073402;28;20044;-38
2023/04/15 06:22:40;;;;;;;11.35;3.65;;;6.10;99.90;;;;;;5073473;28;20331;-39
2023/04/15 06:25:08;;;;;;;8.07;3.40;;;6.20;99.90;;;;;;5073668;28;20044;-38
2023/04/15 06:27:33;;;;;;;7.72;3.78;;;6.30;99.90;;;;;;5072559;28;20080;-38
2023/04/15 06:30:00;;;;;;;10.15;3.95;;;6.40;99.90;;;;;;5055512;28;20079;-38
2023/04/15 06:32:26;;;;;;;10.63;4.03;;;6.50;99.90;;;;;;5073451;28;20087;-39
2023/04/15 06:34:52;;;;;;;9.27;3.77;;;6.80;99.90;;;;;;5073676;28;20053;-38
2023/04/15 06:37:17;;;;;;;9.57;4.07;;;7.10;99.90;;;;;;5072415;28;20048;-38
2023/04/15 06:39:43;;;;;;;10.53;4.23;;;7.40;99.90;;;;;;5073475;28;20083;-38
2023/04/15 06:42:10;;;;;;;9.10;3.97;;;7.70;99.90;;;;;;5072871;28;20060;-39
2023/04/15 06:44:36;;;;;;;9.27;3.80;;;8.00;99.90;;;;;;5073370;28;20533;-38
2023/04/15 06:47:02;;;;;;;8.77;3.70;;;8.30;99.90;;;;;;5072088;28;20041;-38
2023/04/15 06:49:28;;;;;;;8.02;3.67;;;8.50;99.90;;;;;;5073236;28;20055;-38
2023/04/15 06:51:53;;;;;;;7.07;3.70;;;8.60;99.90;;;;;;5073327;28;20139;-38
2023/04/15 06:54:19;;;;;;;7.07;3.17;;;8.60;99.90;;;;;;5055831;28;20131;-38
2023/04/15 06:56:45;;;;;;;9.27;3.50;;;8.60;99.90;;;;;;5073454;28;20395;-38
2023/04/15 06:59:11;;;;;;;7.83;3.73;;;8.60;99.90;;;;;;5072427;28;20086;-39
2023/04/15 07:01:37;;;;;;;9.63;3.83;;;8.60;99.90;;;;;;5071921;28;20487;-38
2023/04/15 07:04:03;;;;;;;9.57;3.83;;;8.60;99.90;;;;;;5073422;28;20044;-38
2023/04/15 07:06:28;;;;;;;8.27;3.43;;;8.50;99.90;;;;;;5072134;28;20063;-38
2023/04/15 07:08:54;;;;;;;7.10;3.47;;;8.50;99.90;;;;;;5073334;28;20183;-38
2023/04/15 07:11:20;;;;;;;8.00;3.67;;;8.50;99.90;;;;;;5073410;28;20381;-38
2023/04/15 07:13:46;;;;;;;8.70;3.50;;;8.40;99.90;;;;;;5089035;28;20499;-38
2023/04/15 07:16:12;;;;;;;7.87;3.20;;;8.40;99.90;;;;;;5073180;28;20131;-38
2023/04/15 07:18:37;;;;;;;10.68;3.53;;;8.40;99.90;;;;;;5073061;28;20041;-38
2023/04/15 07:21:03;;;;;;;9.07;3.63;;;8.40;99.90;;;;;;5073144;28;20049;-39
2023/04/15 07:23:29;;;;;;;9.82;3.75;;;8.30;99.90;;;;;;5073465;28;20394;-38
2023/04/15 07:25:55;;;;;;;7.77;3.40;;;8.40;99.90;;;;;;5055492;28;20132;-38
2023/04/15 07:28:21;;;;;;;7.97;3.50;;;8.40;99.90;;;;;;5073021;28;20055;-38
2023/04/15 07:30:47;;;;;;;8.23;3.30;;;8.40;99.90;;;;;;5073266;28;20491;-38
2023/04/15 07:33:13;;;;;;;8.70;3.55;;;8.40;99.90;;;;;;5075555;28;20474;-38
2023/04/15 07:35:39;;;;;;;6.87;3.30;;;8.40;99.90;;;;;;5076571;28;20131;-38
2023/04/15 07:38:04;;;;;;;7.87;3.20;;;8.40;99.90;;;;;;5076616;28;20044;-38
2023/04/15 07:40:30;;;;;;;9.37;3.73;;;8.30;99.90;;;;;;5076406;28;20045;-38
2023/04/15 07:42:57;;;;;;;7.67;3.30;;;8.30;99.90;;;;;;5076624;28;20102;-38
2023/04/15 07:45:23;;;;;;;;;;;8.30;99.90;;;;;;5076983;28;20104;-38
2023/04/15 07:47:50;;;;;;;6.78;3.20;;;8.30;99.90;;;;;;5075434;28;20284;-38
2023/04/15 07:50:16;;;;;;;;;;;8.30;99.90;;;;;;5076535;28;20513;-38
2023/04/15 07:52:42;;;;;;;7.70;3.42;;;8.30;99.90;;;;;;5075486;28;19920;-38
2023/04/15 07:55:08;;;;;;;8.00;3.30;;;8.30;99.90;;;;;;5076460;28;20048;-38
2023/04/15 07:57:35;;;;;;;6.78;2.85;;;8.30;99.90;;;;;;5076332;28;20154;-38
2023/04/15 08:00:02;;;;;;;;;;;8.30;99.90;;;;;;5076505;28;20411;-38
2023/04/15 08:02:28;;;;;;;7.03;2.90;;;8.30;99.90;;;;;;5076146;28;19921;-38
2023/04/15 08:04:54;;;;;;;7.47;3.10;;;8.30;99.90;;;;;;5075999;28;20048;-38
2023/04/15 08:07:20;;;;;;;6.53;2.87;;;8.30;99.90;;;;;;5076269;28;20100;-38
2023/04/15 08:09:46;;;;;;;7.33;3.07;;;8.30;99.90;;;;;;5074871;28;20526;-38
2023/04/15 08:12:12;;;;;;;8.03;2.70;;;8.30;99.90;;;;;;5076172;28;20128;-38
2023/04/15 08:14:38;;;;;;;7.15;3.20;;;8.30;99.90;;;;;;5076109;28;20351;-38
2023/04/15 08:17:04;;;;;;;5.20;2.17;;;8.40;99.90;;;;;;5075999;28;20502;-38
2023/04/15 08:19:30;;;;;;;6.40;2.63;;;8.40;99.90;;;;;;5075739;28;20091;-38
2023/04/15 08:21:56;;;;;;;5.80;2.33;;;8.40;99.90;;;;;;5075995;28;20049;-38
2023/04/15 08:24:25;;;;;;;5.78;2.60;;;8.40;99.90;;;;;;5074844;28;20056;-38
2023/04/15 08:26:51;;;;;;;4.18;1.85;;;8.30;99.90;;;;;;5075760;28;20044;-38
2023/04/15 08:29:17;;;;;;;5.82;2.13;;;8.30;99.90;;;;;;5075545;28;20474;-38
2023/04/15 08:31:43;;;;;;;4.10;1.90;;;8.40;99.90;;;;;;5075631;28;20087;-38
2023/04/15 08:34:11;;;;;;;3.63;1.55;;;8.40;99.90;;;;;;5074472;28;20282;-38
2023/04/15 08:36:37;;;;;;;3.70;1.38;;;8.30;99.90;;;;;;5075598;28;20125;-38
2023/04/15 08:39:03;;;;;;;4.47;1.50;;;8.30;99.90;;;;;;5075758;28;20044;-38
2023/04/15 08:41:38;;;;;;;4.00;1.40;;;8.30;99.90;;;;;;5074692;28;20130;-38
2023/04/15 08:44:05;;;;;;;4.07;1.50;;;8.30;99.90;;;;;;5075268;28;20054;-38
2023/04/15 08:46:34;;;;;;;4.68;1.73;;;8.30;99.90;;;;;;5075337;28;20050;-38
2023/04/15 08:49:03;;;;;;;4.63;1.33;;;8.30;99.90;;;;;;5074349;28;20037;-38
2023/04/15 08:51:29;;;;;;;2.67;1.13;;;8.30;99.90;;;;;;5075287;28;20049;-38
2023/04/15 08:53:55;;;;;;;2.67;0.85;;;8.30;99.90;;;;;;5075268;28;20048;-38
2023/04/15 08:56:24;;;;;;;3.20;1.13;;;8.30;99.90;;;;;;5075137;28;20067;-38
2023/04/15 08:58:50;;;;;;;3.20;1.00;;;8.30;99.90;;;;;;5074000;28;20437;-41
2023/04/15 09:01:15;;;;;;;2.80;0.90;;;8.30;99.90;;;;;;5074025;28;20054;-38
2023/04/15 09:03:42;;;;;;;2.60;0.90;;;8.30;99.90;;;;;;5075086;28;20127;-38
2023/04/15 09:06:08;;;;;;;;;;;8.40;99.90;;;;;;5075636;28;20048;-39
2023/04/15 09:08:34;;;;;;;3.65;0.80;;;8.40;99.90;;;;;;5073902;28;20010;-38
2023/04/15 09:11:01;;;;;;;2.97;1.08;;;8.40;99.90;;;;;;5073960;28;20048;-38
2023/04/15 09:13:28;;;;;;;1.75;0.90;;;8.40;99.90;;;;;;5074800;28;20152;-39
2023/04/15 09:15:55;;;;;;;2.80;1.15;;;8.40;99.90;;;;;;5074883;28;20052;-38
2023/04/15 09:18:32;;;;;;;2.22;0.80;;;8.50;99.90;;;;;;5074885;28;20049;-38
2023/04/15 09:21:10;;;;;;;3.33;0.95;;;8.60;99.90;;;;;;5074815;28;20114;-38
2023/04/15 09:23:37;;;;;;;1.95;0.80;;;8.60;99.90;;;;;;5074747;28;20048;-38
2023/04/15 09:26:04;;;;;;;1.58;0.70;;;8.70;99.90;;;;;;5056786;28;20139;-38
2023/04/15 09:28:30;;;;;;;;;;;8.80;99.90;;;;;;5074965;28;20052;-39
2023/04/15 09:30:57;;;;;;;2.88;0.90;;;8.80;99.90;;;;;;5074630;28;19972;-38
2023/04/15 09:33:24;;;;;;;2.08;0.80;;;8.90;99.90;;;;;;5074421;28;20056;-38
2023/04/15 09:36:02;;;;;;;3.20;1.20;;;8.80;99.90;;;;;;5073351;28;20128;-38
2023/04/15 09:38:28;;;;;;;3.47;1.08;;;8.90;99.90;;;;;;5073249;28;20095;-39
2023/04/15 09:40:54;;;;;;;2.75;0.80;;;8.90;99.90;;;;;;5074288;28;20503;-38
2023/04/15 09:43:20;;;;;;;2.55;0.60;;;9.00;99.90;;;;;;5074496;28;20059;-38
2023/04/15 09:45:51;;;;;;;2.10;0.90;;;9.10;99.90;;;;;;5074210;28;20047;-38
2023/04/15 09:48:19;;;;;;;2.13;0.90;;;9.10;99.90;;;;;;5073887;28;20476;-38
2023/04/15 09:50:45;;;;;;;2.05;0.85;;;9.10;99.90;;;;;;5073279;28;20074;-38
2023/04/15 09:53:15;;;;;;;3.27;0.90;;;9.10;99.90;;;;;;5073956;28;20576;-38
2023/04/15 09:55:55;;;;;;;1.90;0.68;;;9.10;99.90;;;;;;5073606;28;20291;-38
2023/04/15 09:58:26;;;;;;;2.47;0.75;;;9.10;99.90;;;;;;5073943;28;20044;-38
2023/04/15 10:00:53;;;;;;;1.75;0.68;;;9.20;99.90;;;;;;5073398;28;20059;-39
2023/04/15 10:03:27;;;;;;;1.67;0.70;;;9.10;99.90;;;;;;5073810;28;20145;-39
2023/04/15 10:05:55;;;;;;;2.72;0.57;;;9.20;99.90;;;;;;5073838;28;20090;-39
2023/04/15 10:08:23;;;;;;;3.22;0.93;;;9.20;99.90;;;;;;5073824;28;20055;-39
2023/04/15 10:10:53;;;;;;;3.42;0.93;;;9.20;99.90;;;;;;5073897;28;20055;-39
2023/04/15 10:13:22;;;;;;;2.10;0.80;;;9.20;99.90;;;;;;5073689;28;20493;-38
2023/04/15 10:15:54;;;;;;;2.67;1.00;;;9.20;99.90;;;;;;5073895;28;20094;-39
2023/04/15 10:18:22;;;;;;;2.72;0.70;;;9.20;99.90;;;;;;5072803;28;20149;-39
2023/04/15 10:20:49;;;;;;;2.85;0.75;;;9.20;99.90;;;;;;5073808;28;20123;-39
2023/04/15 10:23:16;;;;;;;5.93;1.23;;;9.20;99.90;;;;;;5073680;28;20044;-39
2023/04/15 10:25:42;;;;;;;;;;;9.20;99.90;;;;;;5073068;28;20059;-39
2023/04/15 10:28:08;;;;;;;2.95;0.95;;;9.10;99.90;;;;;;5073660;28;20293;-39
2023/04/15 10:30:35;;;;;;;2.63;1.10;;;9.10;99.90;;;;;;5073691;28;20064;-39
2023/04/15 10:33:03;;;;;;;3.25;0.80;;;9.10;99.90;;;;;;5073432;28;20517;-39
2023/04/15 10:35:30;;;;;;;3.97;1.08;;;9.10;99.90;;;;;;5073486;28;20483;-39
2023/04/15 10:37:56;;;;;;;3.17;0.82;;;9.10;99.90;;;;;;5072549;28;20044;-39
2023/04/15 10:40:26;;;;;;;3.33;1.10;;;9.10;99.90;;;;;;5073597;28;20041;-39
2023/04/15 10:43:00;;;;;;;3.10;1.40;;;9.00;99.90;;;;;;5073380;28;20435;-39
2023/04/15 10:45:30;;;;;;;4.75;0.90;;;9.10;99.90;;;;;;5072369;28;20048;-39
2023/04/15 10:47:57;;;;;;;2.75;1.00;;;9.10;99.90;;;;;;5073482;28;20070;-39
2023/04/15 10:50:25;;;;;;;2.80;1.00;;;9.10;99.90;;;;;;5073437;28;20399;-39
2023/04/15 10:52:51;;;;;;;3.40;1.00;;;9.10;99.90;;;;;;5073389;28;20124;-39
2023/04/15 10:55:22;;;;;;;3.28;0.95;;;9.10;99.90;;;;;;5073371;28;20391;-39
2023/04/15 10:57:53;;;;;;;3.28;1.15;;;9.00;99.90;;;;;;5073424;28;20488;-39
2023/04/15 11:00:23;;;;;;;3.55;1.20;;;9.10;99.90;;;;;;5072178;28;20080;-39
2023/04/15 11:03:36;;;;;;;5.72;1.23;;;9.00;99.90;;;;;;5073265;28;20131;-39
2023/04/15 11:06:02;;;;;;;4.60;0.80;;;9.00;99.90;;;;;;5073188;28;20056;-39
2023/04/15 11:08:53;;;;;;;2.30;0.70;;;9.00;99.90;;;;;;5077080;28;20040;-39
2023/04/15 11:11:19;;;;;;;2.63;0.80;;;8.90;99.90;;;;;;5071374;28;20056;-39
2023/04/15 11:13:51;;;;;;;1.83;0.70;;;8.90;99.90;;;;;;5077192;28;20483;-39
2023/04/15 11:16:17;;;;;;;2.30;0.70;;;8.90;99.90;;;;;;5075896;28;20052;-39
2023/04/15 11:18:53;;;;;;;3.42;0.77;;;9.00;99.90;;;;;;5076939;28;20036;-40
2023/04/15 11:21:23;;;;;;;2.25;0.75;;;9.10;99.90;;;;;;5077198;28;20120;-39
2023/04/15 11:23:49;;;;;;;5.68;1.17;;;9.10;99.90;;;;;;5076953;28;20041;-40
2023/04/15 11:26:15;;;;;;;;;;;9.10;99.90;;;;;;5077298;28;20158;-39
2023/04/15 11:28:46;;;;;;;5.22;1.52;;;9.10;99.90;;;;;;5076840;28;20019;-39
2023/04/15 11:31:13;;;;;;;2.15;0.70;;;9.10;99.90;;;;;;5077393;28;20057;-40
2023/04/15 11:33:57;;;;;;;3.70;1.02;;;9.10;99.90;;;;;;5076545;28;20499;-39
2023/04/15 11:36:28;;;;;;;2.35;0.80;;;9.10;99.90;;;;;;5076244;28;20156;-39
2023/04/15 11:38:56;;;;;;;2.58;0.90;;;9.10;99.90;;;;;;5076670;28;20128;-39
2023/04/15 11:41:25;;;;;;;3.55;0.80;;;9.10;99.90;;;;;;5075522;28;20045;-39
2023/04/15 11:43:51;;;;;;;2.25;0.77;;;9.10;99.90;;;;;;5076491;28;20560;-39
2023/04/15 11:46:17;;;;;;;4.88;1.00;;;9.10;99.90;;;;;;5075666;28;20082;-39
2023/04/15 11:48:45;;;;;;;3.78;0.77;;;9.10;99.90;;;;;;5076500;28;20494;-39
2023/04/15 11:51:13;;;;;;;7.30;1.42;;;9.10;99.90;;;;;;5075402;28;20057;-39
2023/04/15 11:53:49;;;;;;;1.52;0.63;;;9.20;99.90;;;;;;5075573;28;20053;-39
2023/04/15 11:56:23;;;;;;;4.43;1.00;;;9.10;99.90;;;;;;5076438;28;20044;-39
2023/04/15 11:58:58;;;;;;;4.88;0.88;;;9.10;99.90;;;;;;5076051;28;20509;-39
2023/04/15 12:01:35;;;;;;;2.42;0.70;;;9.10;99.90;;;;;;5076546;28;20048;-39
2023/04/15 12:04:02;;;;;;;2.93;1.17;;;9.10;99.90;;;;;;5076072;28;20049;-40
2023/04/15 12:06:37;;;;;;;1.65;0.65;;;9.20;99.90;;;;;;5075998;28;20094;-39
2023/04/15 12:09:13;;;;;;;2.35;0.70;;;9.20;99.90;;;;;;5075936;28;20552;-39
2023/04/15 12:11:51;;;;;;;3.65;0.70;;;9.20;99.90;;;;;;5076213;28;20127;-39
2023/04/15 12:14:21;;;;;;;2.50;0.43;;;9.20;99.90;;;;;;5076025;28;20048;-39
2023/04/15 12:16:49;;;;;;;3.58;0.80;;;9.20;99.90;;;;;;5074265;28;20487;-39
2023/04/15 12:19:18;;;;;;;3.40;0.70;;;9.20;99.90;;;;;;5075850;28;20102;-39
2023/04/15 12:21:46;;;;;;;4.28;1.20;;;9.10;99.90;;;;;;5075930;28;20048;-39
2023/04/15 12:24:12;;;;;;;3.17;0.80;;;9.00;99.90;;;;;;5075841;28;20051;-39
2023/04/15 12:26:47;;;;;;;6.27;0.70;;;9.00;99.90;;;;;;5075787;28;20048;-40
2023/04/15 12:29:15;;;;;;;2.88;1.38;;;8.90;99.90;;;;;;5075562;28;20052;-39
2023/04/15 12:31:58;;;;;;;3.00;0.95;;;8.90;99.90;;;;;;5075453;28;20062;-40
2023/04/15 12:34:32;;;;;;;2.55;0.70;;;8.90;99.90;;;;;;5074947;28;20111;-39
2023/04/15 12:37:00;;;;;;;1.08;0.60;;;8.80;99.90;;;;;;5075796;28;20098;-39
2023/04/15 12:39:28;;;;;;;3.28;0.68;;;8.80;99.90;;;;;;5075727;28;20086;-39
2023/04/15 12:41:54;;;;;;;5.30;1.95;;;8.80;99.90;;;;;;5074776;28;20373;-39
2023/04/15 12:44:22;;;;;;;4.05;0.75;;;8.80;99.90;;;;;;5074226;28;20079;-40
2023/04/15 12:46:49;;;;;;;3.53;0.68;;;8.80;99.90;;;;;;5076115;28;20377;-40
2023/04/15 12:49:15;;;;;;;1.85;0.68;;;8.80;99.90;;;;;;5075411;28;20473;-39
2023/04/15 12:51:41;;;;;;;3.57;0.70;;;8.70;99.90;;;;;;5075374;28;20128;-39
2023/04/15 12:54:07;;;;;;;4.03;0.90;;;8.70;99.90;;;;;;5074319;28;20097;-39
2023/04/15 12:56:33;;;;;;;2.67;0.50;;;8.70;99.90;;;;;;5075150;28;20516;-39
2023/04/15 12:58:58;;;;;;;6.20;1.03;;;8.60;99.90;;;;;;5075021;28;20049;-39
2023/04/15 13:01:24;;;;;;;3.77;0.70;;;8.60;99.90;;;;;;5075162;28;20040;-39